Flight Track Log - Related Links

Times and Time Zones

All times are in EDT time to prevent confusion due to time zone crossing. See the FLG3613 flight status page for this flight to view local times or setup timezone preferences in your user account.

Time Position Orientation Groundspeed Altitude Reporting Facility
EDT Latitude Longitude Course Direction KTS MPH feet Rate Location/Type
Sat 12:48:09 PM 44.8833 -93.2833 235° Southwest 183 211 2,600  Level Minneapolis TRACON
Sat 12:49:36 PM 44.8444 -93.3892 243° Southwest 248 285 5,400 2,040 Climbing Minneapolis Center
Sat 12:50:39 PM 44.7872 -93.4336 209° Southwest 273 314 7,700 2,496 Climbing Minneapolis Center
Sat 12:51:41 PM 44.7256 -93.5322 229° Southwest 286 329 10,600 2,032 Climbing Minneapolis Center
Sat 12:52:43 PM 44.6783 -93.6300 236° Southwest 305 351 11,900 1,645 Climbing Minneapolis Center
Sat 12:53:00 PM 44.5869 -93.8261 235° Southwest  Level FlightAware Approximate
Sat 12:53:45 PM 44.6214 -93.7311 232° Southwest 329 379 14,000  Level Minneapolis Center
Sat 12:54:47 PM 44.5308 -93.7858 203° Southwest 358 412 15,200 1,161 Climbing Minneapolis Center
Sat 12:55:49 PM 44.4344 -93.8422 203° Southwest 377 434 16,400 1,258 Climbing Minneapolis Center
Sat 12:56:51 PM 44.3181 -93.9128 203° Southwest 382 440 17,800 1,210 Climbing Minneapolis Center
Sat 12:57:53 PM 44.2217 -93.9714 204° Southwest 380 437 18,900 919 Climbing Minneapolis Center
Sat 12:58:55 PM 44.1194 -94.0303 202° Southwest 391 450 19,700 823 Climbing Minneapolis Center
Sat 12:59:57 PM 44.0158 -94.0917 192° South 404 465 20,600 919 Climbing Minneapolis Center
Sat 01:00:00 PM 44.0084 -94.0641 192° South  Level FlightAware Approximate
Sat 01:00:59 PM 43.9114 -94.1511 202° Southwest 406 467 21,600  Level Minneapolis Center
Sat 01:02:01 PM 43.8086 -94.2114 203° Southwest 404 465 22,600 1,065 Climbing Minneapolis Center
Sat 01:03:03 PM 43.6908 -94.2786 202° Southwest 398 458 23,800 1,065 Climbing Minneapolis Center
Sat 01:04:05 PM 43.5922 -94.3361 203° Southwest 390 449 24,800 871 Climbing Minneapolis Center
Sat 01:06:09 PM 43.3961 -94.4483 203° Southwest 381 438 26,500 802 Climbing Minneapolis Center
Sat 01:07:12 PM 43.2789 -94.5153 203° Southwest 381 438 27,300 672 Climbing Minneapolis Center
Sat 01:08:14 PM 43.1803 -94.5725 203° Southwest 384 442 27,900 532 Climbing Minneapolis Center
Sat 01:09:16 PM 43.0800 -94.6267 202° Southwest 386 444 28,400 484 Climbing Minneapolis Center
Sat 01:10:18 PM 42.9792 -94.6839 203° Southwest 391 450 28,900 484 Climbing Minneapolis Center
Sat 01:11:20 PM 42.8761 -94.7411 202° Southwest 398 458 29,400 484 Climbing Minneapolis Center
Sat 01:12:22 PM 42.7739 -94.7983 202° Southwest 398 458 29,900 290 Climbing Minneapolis Center
Sat 01:13:24 PM 42.6586 -94.8644 203° Southwest 404 465 30,000 48 Climbing Minneapolis Center
Sat 01:14:26 PM 42.5511 -94.9253 203° Southwest 416 479 30,000  Level Minneapolis Center
Sat 01:15:28 PM 42.4403 -94.9872 202° Southwest 428 493 30,000  Level Minneapolis Center
Sat 01:16:30 PM 42.3294 -95.0475 202° Southwest 429 494 30,000  Level Minneapolis Center
Sat 01:17:32 PM 42.1972 -95.1203 202° Southwest 428 493 30,000  Level Minneapolis Center
Sat 01:18:34 PM 42.0847 -95.1783 201° Southwest 429 494 30,000  Level Minneapolis Center
Sat 01:19:36 PM 41.9642 -95.2453 202° Southwest 430 495 30,000  Level Minneapolis Center
Sat 01:20:39 PM 41.8631 -95.3003 202° Southwest 431 496 30,000  Level Minneapolis Center
Sat 01:21:41 PM 41.7511 -95.3606 202° Southwest 432 497 30,000  Level Minneapolis Center
Sat 01:22:43 PM 41.6406 -95.4208 202° Southwest 428 493 30,000  Level Minneapolis Center
Sat 01:23:45 PM 41.5064 -95.4914 201° Southwest 429 494 30,000  Level Minneapolis Center
Sat 01:24:47 PM 41.3953 -95.5497 201° Southwest 426 490 30,000  Level Minneapolis Center
Sat 01:25:49 PM 41.2825 -95.6089 202° Southwest 429 494 30,000  Level Minneapolis Center
Sat 01:26:51 PM 41.1708 -95.6706 203° Southwest 424 488 30,000  Level Minneapolis Center
Sat 01:27:53 PM 41.0617 -95.7269 201° Southwest 423 487 30,000  Level Minneapolis Center
Sat 01:28:55 PM 40.9522 -95.7842 202° Southwest 422 486 30,000  Level Minneapolis Center
Sat 01:30:10 PM 40.8228 -95.8525 202° Southwest 419 482 30,000  Level Minneapolis Center
Sat 01:31:12 PM 40.7156 -95.9081 201° Southwest 415 478 30,000  Level Minneapolis Center
Sat 01:32:14 PM 40.5861 -95.9756 202° Southwest 415 478 30,000  Level Minneapolis Center
Sat 01:33:16 PM 40.4792 -96.0308 201° Southwest 414 476 30,000  Level Minneapolis Center
Sat 01:34:18 PM 40.3717 -96.0875 202° Southwest 414 476 30,000  Level Minneapolis Center
Sat 01:35:20 PM 40.2631 -96.1431 201° Southwest 416 479 30,000  Level Minneapolis Center
Sat 01:36:22 PM 40.1539 -96.1972 201° Southwest 417 480 30,000  Level Minneapolis Center
Sat 01:37:24 PM 40.0464 -96.2547 202° Southwest 418 481 30,000  Level Minneapolis Center
Sat 01:38:26 PM 39.9158 -96.3214 201° Southwest 418 481 30,000  Level Minneapolis Center
Sat 01:39:28 PM 39.8078 -96.3761 201° Southwest 418 481 30,000  Level Minneapolis Center
Sat 01:40:31 PM 39.6989 -96.4297 201° Southwest 417 480 30,000  Level Minneapolis Center
Sat 01:41:33 PM 39.5903 -96.4853 202° Southwest 418 481 30,000  Level Minneapolis Center
Sat 01:42:35 PM 39.4819 -96.5403 201° Southwest 418 481 30,000  Level Minneapolis Center
Sat 01:43:37 PM 39.3717 -96.5958 201° Southwest 422 486 30,000  Level Minneapolis Center
Sat 01:44:51 PM 39.2189 -96.6711 201° Southwest 419 482 30,000  Level Minneapolis Center
Sat 01:45:53 PM 39.1097 -96.7269 202° Southwest 421 484 30,000  Level Minneapolis Center
Sat 01:47:02 PM 38.9856 -96.7881 201° Southwest 421 484 30,000 -229 Level Kansas City Center
Sat 01:48:04 PM 38.8744 -96.8419 201° Southwest 424 488 29,500 -1,452 Descending Kansas City Center
Sat 01:49:06 PM 38.7647 -96.8961 201° Southwest 423 487 27,000 -2,468 Descending Kansas City Center
Sat 01:50:08 PM 38.6594 -96.9481 201° Southwest 408 470 24,400 -2,516 Descending Kansas City Center
Sat 01:51:10 PM 38.5558 -96.9997 201° Southwest 400 460 21,800 -2,806 Descending Kansas City Center
Sat 01:52:12 PM 38.4347 -97.0575 200° South 388 447 18,600 -2,758 Descending Kansas City Center
Sat 01:53:14 PM 38.3369 -97.1053 201° Southwest 377 434 16,100 -2,565 Descending Kansas City Center
Sat 01:54:23 PM 38.2256 -97.1581 200° South 353 406 13,000 -2,448 Descending Kansas City Center
Sat 01:55:19 PM 38.1536 -97.1917 200° South 345 397 11,000 -1,576 Descending Kansas City Center
Sat 01:56:21 PM 38.0728 -97.2289 200° South 309 356 9,900 -1,462 Descending Kansas City Center
Sat 01:57:18 PM 37.9942 -97.2639 199° South 260 299 8,100 -1,661 Descending Kansas City Center
Sat 01:58:13 PM 37.9381 -97.2914 201° Southwest 258 297 6,800 -1,397 Descending Kansas City Center
Sat 01:59:14 PM 37.8736 -97.3200 199° South 241 277 5,400 -1,240 Descending Kansas City Center
Sat 02:00:14 PM 37.8175 -97.3475 201° Southwest 191 220 4,300 -1,041 Descending Kansas City Center
Sat 02:01:15 PM 37.7692 -97.3681 199° South 178 205 3,300 -803 Descending Kansas City Center
Sat 02:02:21 PM 37.7189 -97.3919 201° Southwest 179 206 2,600 -756 Descending Kansas City Center
Sat 02:03:22 PM 37.6789 -97.4114 201° Southwest 150 173 1,700 -478 Descending Kansas City Center
Sat 02:04:39 PM 37.6361 -97.4311 200° South 167 192 1,500 -156 Descending Kansas City Center
Sat 02:06:00 PM 37.6333 -97.4167 180° South  Level FlightAware Approximate

Login

Don't have an account? Register now (free) for customized features, flight alerts, and more!